sensor_id;sensor_type;location;lat;lon;timestamp;P1;durP1;ratioP1;P2;durP2;ratioP2
25555;SDS011;13447;57.174;-2.112;2022-07-22T09:23:46;3.55;;;0.73;;
25555;SDS011;13447;57.174;-2.112;2022-07-22T09:26:29;1.20;;;0.47;;
25555;SDS011;13447;57.174;-2.112;2022-07-22T09:29:00;1.85;;;0.50;;
25555;SDS011;13447;57.174;-2.112;2022-07-22T09:31:34;2.05;;;0.70;;
25555;SDS011;13447;57.174;-2.112;2022-07-22T09:34:04;1.27;;;0.80;;
25555;SDS011;13447;57.174;-2.112;2022-07-22T09:36:31;1.45;;;0.55;;
25555;SDS011;13447;57.174;-2.112;2022-07-22T09:39:24;2.83;;;1.10;;
25555;SDS011;13447;57.174;-2.112;2022-07-22T09:41:59;1.55;;;0.65;;
25555;SDS011;13447;57.174;-2.112;2022-07-22T09:44:28;1.92;;;0.80;;
25555;SDS011;13447;57.174;-2.112;2022-07-22T09:46:55;2.15;;;0.60;;
25555;SDS011;13447;57.174;-2.112;2022-07-22T09:49:35;1.98;;;0.80;;
25555;SDS011;13447;57.174;-2.112;2022-07-22T09:52:05;1.63;;;1.02;;
25555;SDS011;13447;57.174;-2.112;2022-07-22T09:54:32;3.30;;;0.68;;
25555;SDS011;13447;57.174;-2.112;2022-07-22T09:57:00;3.22;;;0.85;;
25555;SDS011;13447;57.174;-2.112;2022-07-22T09:59:27;2.22;;;0.70;;
25555;SDS011;13447;57.174;-2.112;2022-07-22T10:01:54;3.47;;;0.73;;
25555;SDS011;13447;57.174;-2.112;2022-07-22T10:04:25;2.90;;;0.95;;
25555;SDS011;13447;57.174;-2.112;2022-07-22T10:06:55;2.88;;;0.80;;
25555;SDS011;13447;57.174;-2.112;2022-07-22T10:09:23;2.22;;;0.80;;
25555;SDS011;13447;57.174;-2.112;2022-07-22T10:11:51;2.25;;;0.82;;
25555;SDS011;13447;57.174;-2.112;2022-07-22T10:14:19;2.92;;;1.00;;
25555;SDS011;13447;57.174;-2.112;2022-07-22T10:16:48;1.67;;;0.70;;
25555;SDS011;13447;57.174;-2.112;2022-07-22T10:19:16;3.35;;;1.00;;
25555;SDS011;13447;57.174;-2.112;2022-07-22T10:21:43;2.40;;;1.00;;
25555;SDS011;13447;57.174;-2.112;2022-07-22T10:24:13;2.08;;;0.75;;
25555;SDS011;13447;57.174;-2.112;2022-07-22T10:26:48;2.53;;;0.60;;
25555;SDS011;13447;57.174;-2.112;2022-07-22T10:29:28;2.10;;;0.60;;
25555;SDS011;13447;57.174;-2.112;2022-07-22T10:35:18;3.83;;;1.00;;
25555;SDS011;13447;57.174;-2.112;2022-07-22T10:37:48;2.97;;;1.02;;
25555;SDS011;13447;57.174;-2.112;2022-07-22T10:40:22;3.40;;;0.70;;
25555;SDS011;13447;57.174;-2.112;2022-07-22T10:45:31;3.13;;;0.90;;
25555;SDS011;13447;57.174;-2.112;2022-07-22T10:48:00;4.25;;;0.80;;
25555;SDS011;13447;57.174;-2.112;2022-07-22T10:53:05;1.20;;;0.63;;
25555;SDS011;13447;57.174;-2.112;2022-07-22T10:55:33;3.53;;;1.25;;
25555;SDS011;13447;57.174;-2.112;2022-07-22T10:58:14;6.18;;;0.80;;
25555;SDS011;13447;57.174;-2.112;2022-07-22T11:01:00;2.45;;;0.82;;
25555;SDS011;13447;57.174;-2.112;2022-07-22T11:03:29;7.88;;;1.27;;
25555;SDS011;13447;57.174;-2.112;2022-07-22T11:06:12;4.07;;;0.90;;
25555;SDS011;13447;57.174;-2.112;2022-07-22T11:08:40;3.83;;;1.17;;
25555;SDS011;13447;57.174;-2.112;2022-07-22T11:11:08;3.45;;;0.80;;
25555;SDS011;13447;57.174;-2.112;2022-07-22T11:13:40;1.23;;;0.65;;
25555;SDS011;13447;57.174;-2.112;2022-07-22T11:16:18;1.88;;;0.90;;
25555;SDS011;13447;57.174;-2.112;2022-07-22T11:18:50;2.80;;;0.95;;
25555;SDS011;13447;57.174;-2.112;2022-07-22T11:21:26;4.10;;;1.13;;
25555;SDS011;13447;57.174;-2.112;2022-07-22T11:23:56;2.83;;;0.90;;
25555;SDS011;13447;57.174;-2.112;2022-07-22T11:26:39;3.10;;;1.40;;
25555;SDS011;13447;57.174;-2.112;2022-07-22T11:29:08;2.58;;;0.80;;
25555;SDS011;13447;57.174;-2.112;2022-07-22T11:31:37;1.45;;;0.90;;
25555;SDS011;13447;57.174;-2.112;2022-07-22T11:34:08;4.57;;;0.98;;
25555;SDS011;13447;57.174;-2.112;2022-07-22T11:36:38;7.55;;;1.67;;
25555;SDS011;13447;57.174;-2.112;2022-07-22T11:39:07;2.47;;;0.93;;
25555;SDS011;13447;57.174;-2.112;2022-07-22T11:41:35;3.70;;;0.90;;
25555;SDS011;13447;57.174;-2.112;2022-07-22T11:44:02;3.78;;;1.10;;
25555;SDS011;13447;57.174;-2.112;2022-07-22T11:46:40;3.28;;;1.02;;
25555;SDS011;13447;57.174;-2.112;2022-07-22T11:49:08;2.55;;;0.90;;
25555;SDS011;13447;57.174;-2.112;2022-07-22T11:51:39;4.03;;;0.80;;
25555;SDS011;13447;57.174;-2.112;2022-07-22T11:54:06;2.85;;;1.00;;
25555;SDS011;13447;57.174;-2.112;2022-07-22T11:56:34;3.03;;;0.88;;
25555;SDS011;13447;57.174;-2.112;2022-07-22T11:59:02;2.38;;;1.10;;
25555;SDS011;13447;57.174;-2.112;2022-07-22T12:01:34;4.53;;;1.00;;
25555;SDS011;13447;57.174;-2.112;2022-07-22T12:04:03;3.03;;;1.00;;
25555;SDS011;13447;57.174;-2.112;2022-07-22T12:06:36;3.28;;;1.23;;
25555;SDS011;13447;57.174;-2.112;2022-07-22T12:09:06;4.55;;;1.20;;
25555;SDS011;13447;57.174;-2.112;2022-07-22T12:11:40;2.53;;;0.98;;
25555;SDS011;13447;57.174;-2.112;2022-07-22T12:14:18;3.60;;;0.90;;
25555;SDS011;13447;57.174;-2.112;2022-07-22T12:19:39;2.95;;;0.82;;
25555;SDS011;13447;57.174;-2.112;2022-07-22T12:22:10;3.85;;;1.10;;
25555;SDS011;13447;57.174;-2.112;2022-07-22T12:24:45;3.90;;;1.50;;
25555;SDS011;13447;57.174;-2.112;2022-07-22T12:27:24;5.45;;;1.45;;
25555;SDS011;13447;57.174;-2.112;2022-07-22T12:29:51;6.68;;;1.67;;
25555;SDS011;13447;57.174;-2.112;2022-07-22T12:32:24;4.20;;;1.08;;
25555;SDS011;13447;57.174;-2.112;2022-07-22T12:34:59;3.75;;;1.00;;
25555;SDS011;13447;57.174;-2.112;2022-07-22T12:37:31;3.92;;;1.10;;
25555;SDS011;13447;57.174;-2.112;2022-07-22T12:40:01;2.63;;;1.02;;
25555;SDS011;13447;57.174;-2.112;2022-07-22T12:42:34;3.22;;;0.90;;
25555;SDS011;13447;57.174;-2.112;2022-07-22T12:45:10;2.67;;;1.00;;
25555;SDS011;13447;57.174;-2.112;2022-07-22T12:47:41;2.78;;;1.25;;
25555;SDS011;13447;57.174;-2.112;2022-07-22T12:50:21;3.35;;;1.02;;
25555;SDS011;13447;57.174;-2.112;2022-07-22T12:52:54;3.90;;;1.10;;
25555;SDS011;13447;57.174;-2.112;2022-07-22T12:55:47;4.65;;;1.10;;
25555;SDS011;13447;57.174;-2.112;2022-07-22T12:58:24;3.20;;;0.77;;
25555;SDS011;13447;57.174;-2.112;2022-07-22T13:00:54;2.05;;;0.82;;
25555;SDS011;13447;57.174;-2.112;2022-07-22T13:03:25;3.85;;;0.98;;
25555;SDS011;13447;57.174;-2.112;2022-07-22T13:05:56;3.67;;;1.00;;
25555;SDS011;13447;57.174;-2.112;2022-07-22T13:08:26;6.88;;;1.10;;
25555;SDS011;13447;57.174;-2.112;2022-07-22T13:11:09;5.18;;;0.70;;
25555;SDS011;13447;57.174;-2.112;2022-07-22T13:13:36;3.80;;;0.90;;
25555;SDS011;13447;57.174;-2.112;2022-07-22T13:16:03;2.60;;;0.85;;
25555;SDS011;13447;57.174;-2.112;2022-07-22T13:18:31;2.40;;;0.85;;
25555;SDS011;13447;57.174;-2.112;2022-07-22T13:20:58;2.05;;;0.95;;
25555;SDS011;13447;57.174;-2.112;2022-07-22T13:23:25;4.57;;;1.30;;
25555;SDS011;13447;57.174;-2.112;2022-07-22T13:25:53;5.00;;;1.10;;
25555;SDS011;13447;57.174;-2.112;2022-07-22T13:28:21;2.40;;;0.80;;
25555;SDS011;13447;57.174;-2.112;2022-07-22T13:30:49;2.83;;;0.80;;
25555;SDS011;13447;57.174;-2.112;2022-07-22T13:33:16;3.80;;;0.70;;
25555;SDS011;13447;57.174;-2.112;2022-07-22T13:35:43;3.10;;;1.10;;
25555;SDS011;13447;57.174;-2.112;2022-07-22T13:38:10;3.90;;;1.13;;
25555;SDS011;13447;57.174;-2.112;2022-07-22T13:40:41;4.40;;;0.95;;
25555;SDS011;13447;57.174;-2.112;2022-07-22T13:43:09;4.70;;;1.20;;
25555;SDS011;13447;57.174;-2.112;2022-07-22T13:45:40;2.10;;;0.70;;
25555;SDS011;13447;57.174;-2.112;2022-07-22T13:48:07;2.50;;;0.90;;
25555;SDS011;13447;57.174;-2.112;2022-07-22T13:50:34;3.15;;;0.90;;
25555;SDS011;13447;57.174;-2.112;2022-07-22T13:53:01;5.78;;;1.10;;
25555;SDS011;13447;57.174;-2.112;2022-07-22T13:55:28;3.25;;;0.73;;
25555;SDS011;13447;57.174;-2.112;2022-07-22T13:57:57;2.58;;;0.80;;
25555;SDS011;13447;57.174;-2.112;2022-07-22T14:00:24;3.60;;;1.10;;
25555;SDS011;13447;57.174;-2.112;2022-07-22T14:02:51;3.75;;;1.00;;
25555;SDS011;13447;57.174;-2.112;2022-07-22T14:05:18;3.25;;;1.10;;
25555;SDS011;13447;57.174;-2.112;2022-07-22T14:07:45;2.95;;;0.93;;
25555;SDS011;13447;57.174;-2.112;2022-07-22T14:10:12;2.70;;;1.10;;
25555;SDS011;13447;57.174;-2.112;2022-07-22T14:12:41;5.20;;;1.27;;
25555;SDS011;13447;57.174;-2.112;2022-07-22T14:15:08;2.45;;;0.80;;
25555;SDS011;13447;57.174;-2.112;2022-07-22T14:17:35;4.90;;;1.10;;
25555;SDS011;13447;57.174;-2.112;2022-07-22T14:20:03;3.42;;;1.08;;
25555;SDS011;13447;57.174;-2.112;2022-07-22T14:22:33;2.92;;;1.13;;
25555;SDS011;13447;57.174;-2.112;2022-07-22T14:25:00;4.25;;;0.80;;
25555;SDS011;13447;57.174;-2.112;2022-07-22T14:27:27;3.88;;;1.10;;
25555;SDS011;13447;57.174;-2.112;2022-07-22T14:29:54;3.35;;;0.82;;
25555;SDS011;13447;57.174;-2.112;2022-07-22T14:32:21;4.68;;;1.00;;
25555;SDS011;13447;57.174;-2.112;2022-07-22T14:34:48;5.13;;;0.90;;
25555;SDS011;13447;57.174;-2.112;2022-07-22T14:37:15;2.13;;;0.70;;
25555;SDS011;13447;57.174;-2.112;2022-07-22T14:39:46;2.88;;;1.13;;
25555;SDS011;13447;57.174;-2.112;2022-07-22T14:42:13;5.03;;;1.10;;
25555;SDS011;13447;57.174;-2.112;2022-07-22T14:44:40;3.50;;;0.90;;
25555;SDS011;13447;57.174;-2.112;2022-07-22T14:47:07;4.82;;;1.05;;
25555;SDS011;13447;57.174;-2.112;2022-07-22T14:49:34;5.72;;;1.08;;
25555;SDS011;13447;57.174;-2.112;2022-07-22T14:52:01;2.80;;;0.88;;
25555;SDS011;13447;57.174;-2.112;2022-07-22T14:54:28;2.25;;;0.70;;
25555;SDS011;13447;57.174;-2.112;2022-07-22T14:56:55;4.60;;;1.05;;
25555;SDS011;13447;57.174;-2.112;2022-07-22T14:59:22;5.60;;;1.20;;
25555;SDS011;13447;57.174;-2.112;2022-07-22T15:01:51;2.20;;;0.70;;
25555;SDS011;13447;57.174;-2.112;2022-07-22T15:04:19;2.75;;;0.90;;
25555;SDS011;13447;57.174;-2.112;2022-07-22T15:06:46;4.63;;;1.33;;
25555;SDS011;13447;57.174;-2.112;2022-07-22T15:09:13;2.47;;;0.77;;
25555;SDS011;13447;57.174;-2.112;2022-07-22T15:11:40;1.77;;;0.70;;
25555;SDS011;13447;57.174;-2.112;2022-07-22T15:14:07;1.83;;;0.90;;
25555;SDS011;13447;57.174;-2.112;2022-07-22T15:16:34;2.53;;;0.70;;
25555;SDS011;13447;57.174;-2.112;2022-07-22T15:19:01;2.80;;;0.90;;
25555;SDS011;13447;57.174;-2.112;2022-07-22T15:21:28;2.88;;;1.17;;
25555;SDS011;13447;57.174;-2.112;2022-07-22T15:23:57;6.70;;;1.05;;
25555;SDS011;13447;57.174;-2.112;2022-07-22T15:26:25;4.90;;;1.05;;
25555;SDS011;13447;57.174;-2.112;2022-07-22T15:28:52;4.65;;;1.20;;
25555;SDS011;13447;57.174;-2.112;2022-07-22T15:31:20;5.00;;;0.80;;
25555;SDS011;13447;57.174;-2.112;2022-07-22T15:33:47;2.45;;;0.85;;
25555;SDS011;13447;57.174;-2.112;2022-07-22T15:36:16;2.88;;;0.88;;
25555;SDS011;13447;57.174;-2.112;2022-07-22T15:38:43;4.35;;;1.33;;
25555;SDS011;13447;57.174;-2.112;2022-07-22T15:41:10;3.22;;;0.95;;
25555;SDS011;13447;57.174;-2.112;2022-07-22T15:43:39;4.53;;;1.10;;
25555;SDS011;13447;57.174;-2.112;2022-07-22T15:46:06;2.35;;;0.90;;
25555;SDS011;13447;57.174;-2.112;2022-07-22T15:48:35;1.90;;;0.70;;
25555;SDS011;13447;57.174;-2.112;2022-07-22T15:51:02;3.70;;;0.80;;
25555;SDS011;13447;57.174;-2.112;2022-07-22T15:53:30;2.88;;;0.80;;
25555;SDS011;13447;57.174;-2.112;2022-07-22T15:55:58;3.53;;;0.90;;
25555;SDS011;13447;57.174;-2.112;2022-07-22T15:58:25;2.95;;;1.00;;
25555;SDS011;13447;57.174;-2.112;2022-07-22T16:01:31;5.15;;;0.90;;
25555;SDS011;13447;57.174;-2.112;2022-07-22T16:03:58;2.95;;;1.27;;
25555;SDS011;13447;57.174;-2.112;2022-07-22T16:06:25;2.47;;;0.98;;
25555;SDS011;13447;57.174;-2.112;2022-07-22T16:08:54;2.97;;;0.90;;
25555;SDS011;13447;57.174;-2.112;2022-07-22T16:11:22;5.57;;;1.27;;
25555;SDS011;13447;57.174;-2.112;2022-07-22T16:13:49;4.07;;;1.27;;
25555;SDS011;13447;57.174;-2.112;2022-07-22T16:16:17;2.45;;;0.75;;
25555;SDS011;13447;57.174;-2.112;2022-07-22T16:18:44;3.22;;;0.68;;
25555;SDS011;13447;57.174;-2.112;2022-07-22T16:21:11;4.25;;;1.08;;
25555;SDS011;13447;57.174;-2.112;2022-07-22T16:23:38;4.70;;;1.30;;
25555;SDS011;13447;57.174;-2.112;2022-07-22T16:26:05;3.13;;;0.90;;
25555;SDS011;13447;57.174;-2.112;2022-07-22T16:28:32;4.88;;;1.10;;
25555;SDS011;13447;57.174;-2.112;2022-07-22T16:30:59;4.22;;;0.93;;
25555;SDS011;13447;57.174;-2.112;2022-07-22T16:33:26;1.95;;;1.02;;
25555;SDS011;13447;57.174;-2.112;2022-07-22T16:35:53;3.92;;;0.90;;
25555;SDS011;13447;57.174;-2.112;2022-07-22T16:38:20;4.40;;;0.90;;
25555;SDS011;13447;57.174;-2.112;2022-07-22T16:40:47;3.88;;;0.95;;
25555;SDS011;13447;57.174;-2.112;2022-07-22T16:43:14;3.03;;;0.85;;
25555;SDS011;13447;57.174;-2.112;2022-07-22T16:45:41;2.83;;;0.93;;
25555;SDS011;13447;57.174;-2.112;2022-07-22T16:48:08;3.75;;;1.00;;
25555;SDS011;13447;57.174;-2.112;2022-07-22T16:53:06;3.20;;;1.02;;
25555;SDS011;13447;57.174;-2.112;2022-07-22T16:55:33;3.70;;;0.80;;
25555;SDS011;13447;57.174;-2.112;2022-07-22T16:58:00;3.70;;;1.10;;
25555;SDS011;13447;57.174;-2.112;2022-07-22T17:00:27;3.95;;;0.98;;
25555;SDS011;13447;57.174;-2.112;2022-07-22T17:02:54;3.83;;;1.00;;
25555;SDS011;13447;57.174;-2.112;2022-07-22T17:05:21;1.95;;;0.60;;
25555;SDS011;13447;57.174;-2.112;2022-07-22T17:07:48;2.25;;;0.80;;
25555;SDS011;13447;57.174;-2.112;2022-07-22T17:10:15;3.03;;;0.90;;
25555;SDS011;13447;57.174;-2.112;2022-07-22T17:12:42;3.83;;;1.13;;
25555;SDS011;13447;57.174;-2.112;2022-07-22T17:15:10;3.75;;;1.17;;
25555;SDS011;13447;57.174;-2.112;2022-07-22T17:17:40;3.22;;;0.90;;
25555;SDS011;13447;57.174;-2.112;2022-07-22T17:20:08;2.53;;;0.95;;
25555;SDS011;13447;57.174;-2.112;2022-07-22T17:22:36;3.38;;;0.90;;
25555;SDS011;13447;57.174;-2.112;2022-07-22T17:25:04;4.40;;;0.98;;
25555;SDS011;13447;57.174;-2.112;2022-07-22T17:27:31;2.45;;;0.80;;
25555;SDS011;13447;57.174;-2.112;2022-07-22T17:29:59;4.20;;;1.13;;
25555;SDS011;13447;57.174;-2.112;2022-07-22T17:32:26;2.80;;;1.00;;
25555;SDS011;13447;57.174;-2.112;2022-07-22T17:34:53;3.30;;;1.45;;
25555;SDS011;13447;57.174;-2.112;2022-07-22T17:37:20;2.72;;;1.08;;
25555;SDS011;13447;57.174;-2.112;2022-07-22T17:39:47;3.10;;;0.90;;
25555;SDS011;13447;57.174;-2.112;2022-07-22T17:42:14;2.70;;;0.80;;
25555;SDS011;13447;57.174;-2.112;2022-07-22T17:44:43;1.98;;;0.70;;
25555;SDS011;13447;57.174;-2.112;2022-07-22T17:47:10;5.95;;;1.10;;
25555;SDS011;13447;57.174;-2.112;2022-07-22T17:49:37;2.83;;;0.80;;
25555;SDS011;13447;57.174;-2.112;2022-07-22T17:52:04;4.45;;;1.52;;
25555;SDS011;13447;57.174;-2.112;2022-07-22T17:54:32;4.43;;;0.95;;
25555;SDS011;13447;57.174;-2.112;2022-07-22T17:56:59;5.22;;;1.40;;
25555;SDS011;13447;57.174;-2.112;2022-07-22T17:59:26;2.67;;;0.93;;
25555;SDS011;13447;57.174;-2.112;2022-07-22T18:01:53;4.35;;;1.50;;
25555;SDS011;13447;57.174;-2.112;2022-07-22T18:04:20;3.63;;;1.23;;
25555;SDS011;13447;57.174;-2.112;2022-07-22T18:06:47;4.93;;;1.90;;
25555;SDS011;13447;57.174;-2.112;2022-07-22T18:09:14;4.78;;;1.75;;
25555;SDS011;13447;57.174;-2.112;2022-07-22T18:11:41;3.72;;;1.30;;
25555;SDS011;13447;57.174;-2.112;2022-07-22T18:14:08;2.72;;;1.20;;
25555;SDS011;13447;57.174;-2.112;2022-07-22T18:16:35;3.72;;;1.15;;
25555;SDS011;13447;57.174;-2.112;2022-07-22T18:19:02;2.90;;;1.10;;
25555;SDS011;13447;57.174;-2.112;2022-07-22T18:21:29;3.95;;;1.05;;
25555;SDS011;13447;57.174;-2.112;2022-07-22T18:23:56;1.80;;;0.88;;
25555;SDS011;13447;57.174;-2.112;2022-07-22T18:26:24;2.50;;;0.90;;
25555;SDS011;13447;57.174;-2.112;2022-07-22T18:28:51;4.72;;;1.17;;
25555;SDS011;13447;57.174;-2.112;2022-07-22T18:31:19;3.28;;;1.20;;
25555;SDS011;13447;57.174;-2.112;2022-07-22T18:33:46;2.97;;;1.35;;
25555;SDS011;13447;57.174;-2.112;2022-07-22T18:36:13;1.73;;;1.15;;
25555;SDS011;13447;57.174;-2.112;2022-07-22T18:38:40;3.45;;;1.67;;
25555;SDS011;13447;57.174;-2.112;2022-07-22T18:41:12;4.50;;;1.50;;
25555;SDS011;13447;57.174;-2.112;2022-07-22T18:43:39;4.55;;;1.33;;
25555;SDS011;13447;57.174;-2.112;2022-07-22T18:46:06;3.40;;;1.23;;
25555;SDS011;13447;57.174;-2.112;2022-07-22T18:48:34;3.75;;;1.08;;
25555;SDS011;13447;57.174;-2.112;2022-07-22T18:51:01;3.58;;;1.58;;
25555;SDS011;13447;57.174;-2.112;2022-07-22T18:53:29;4.93;;;1.58;;
25555;SDS011;13447;57.174;-2.112;2022-07-22T18:55:57;4.43;;;1.45;;
25555;SDS011;13447;57.174;-2.112;2022-07-22T18:58:24;6.35;;;1.60;;
25555;SDS011;13447;57.174;-2.112;2022-07-22T19:00:51;3.95;;;1.52;;
25555;SDS011;13447;57.174;-2.112;2022-07-22T19:03:18;2.78;;;1.13;;
25555;SDS011;13447;57.174;-2.112;2022-07-22T19:05:52;2.90;;;1.10;;
25555;SDS011;13447;57.174;-2.112;2022-07-22T19:08:19;2.47;;;1.20;;
25555;SDS011;13447;57.174;-2.112;2022-07-22T19:10:46;3.95;;;1.10;;
25555;SDS011;13447;57.174;-2.112;2022-07-22T19:13:13;3.55;;;1.10;;
25555;SDS011;13447;57.174;-2.112;2022-07-22T19:15:41;4.45;;;1.30;;
25555;SDS011;13447;57.174;-2.112;2022-07-22T19:18:08;5.63;;;1.60;;
25555;SDS011;13447;57.174;-2.112;2022-07-22T19:20:35;2.55;;;1.42;;
25555;SDS011;13447;57.174;-2.112;2022-07-22T19:23:02;3.20;;;1.08;;
25555;SDS011;13447;57.174;-2.112;2022-07-22T19:25:29;3.25;;;1.45;;
25555;SDS011;13447;57.174;-2.112;2022-07-22T19:27:56;5.47;;;1.60;;
25555;SDS011;13447;57.174;-2.112;2022-07-22T19:30:23;2.38;;;1.50;;
25555;SDS011;13447;57.174;-2.112;2022-07-22T19:32:50;3.85;;;1.30;;
25555;SDS011;13447;57.174;-2.112;2022-07-22T19:35:17;4.47;;;1.33;;
25555;SDS011;13447;57.174;-2.112;2022-07-22T19:37:45;3.42;;;1.17;;
25555;SDS011;13447;57.174;-2.112;2022-07-22T19:40:12;1.80;;;1.08;;
25555;SDS011;13447;57.174;-2.112;2022-07-22T19:42:39;2.40;;;1.02;;
25555;SDS011;13447;57.174;-2.112;2022-07-22T19:45:07;3.53;;;1.38;;
25555;SDS011;13447;57.174;-2.112;2022-07-22T19:47:34;3.55;;;1.33;;
25555;SDS011;13447;57.174;-2.112;2022-07-22T19:50:01;5.20;;;1.23;;
25555;SDS011;13447;57.174;-2.112;2022-07-22T19:52:29;3.05;;;1.52;;
25555;SDS011;13447;57.174;-2.112;2022-07-22T19:54:56;4.45;;;1.67;;
25555;SDS011;13447;57.174;-2.112;2022-07-22T19:57:23;3.13;;;1.60;;
25555;SDS011;13447;57.174;-2.112;2022-07-22T19:59:51;5.57;;;1.30;;
25555;SDS011;13447;57.174;-2.112;2022-07-22T20:02:18;3.75;;;1.35;;
25555;SDS011;13447;57.174;-2.112;2022-07-22T20:04:45;3.20;;;1.45;;
25555;SDS011;13447;57.174;-2.112;2022-07-22T20:07:12;3.13;;;1.15;;
25555;SDS011;13447;57.174;-2.112;2022-07-22T20:09:41;3.60;;;1.52;;
25555;SDS011;13447;57.174;-2.112;2022-07-22T20:12:09;3.63;;;1.77;;
25555;SDS011;13447;57.174;-2.112;2022-07-22T20:14:38;6.28;;;1.70;;
25555;SDS011;13447;57.174;-2.112;2022-07-22T20:17:06;4.93;;;1.80;;
25555;SDS011;13447;57.174;-2.112;2022-07-22T20:19:33;6.15;;;1.80;;
25555;SDS011;13447;57.174;-2.112;2022-07-22T20:22:01;3.00;;;1.25;;
25555;SDS011;13447;57.174;-2.112;2022-07-22T20:24:28;4.88;;;1.80;;
25555;SDS011;13447;57.174;-2.112;2022-07-22T20:26:55;4.32;;;1.40;;
25555;SDS011;13447;57.174;-2.112;2022-07-22T20:29:22;6.95;;;1.98;;
25555;SDS011;13447;57.174;-2.112;2022-07-22T20:31:49;5.03;;;1.88;;
25555;SDS011;13447;57.174;-2.112;2022-07-22T20:34:17;2.97;;;1.65;;
25555;SDS011;13447;57.174;-2.112;2022-07-22T20:36:45;2.85;;;1.63;;
25555;SDS011;13447;57.174;-2.112;2022-07-22T20:39:15;5.13;;;2.05;;
25555;SDS011;13447;57.174;-2.112;2022-07-22T20:41:42;8.27;;;1.98;;
25555;SDS011;13447;57.174;-2.112;2022-07-22T20:44:09;4.22;;;1.88;;
25555;SDS011;13447;57.174;-2.112;2022-07-22T20:46:36;6.78;;;2.00;;
25555;SDS011;13447;57.174;-2.112;2022-07-22T20:49:03;3.92;;;1.80;;
25555;SDS011;13447;57.174;-2.112;2022-07-22T20:51:30;3.55;;;1.60;;
25555;SDS011;13447;57.174;-2.112;2022-07-22T20:53:57;5.97;;;1.55;;
25555;SDS011;13447;57.174;-2.112;2022-07-22T20:56:24;2.58;;;1.70;;
25555;SDS011;13447;57.174;-2.112;2022-07-22T20:58:51;6.45;;;1.77;;
25555;SDS011;13447;57.174;-2.112;2022-07-22T21:01:18;4.25;;;1.60;;
25555;SDS011;13447;57.174;-2.112;2022-07-22T21:03:45;3.47;;;1.80;;
25555;SDS011;13447;57.174;-2.112;2022-07-22T21:06:12;3.75;;;1.73;;
25555;SDS011;13447;57.174;-2.112;2022-07-22T21:08:39;4.68;;;1.75;;
25555;SDS011;13447;57.174;-2.112;2022-07-22T21:11:06;5.20;;;2.35;;
25555;SDS011;13447;57.174;-2.112;2022-07-22T21:13:33;4.18;;;1.67;;
25555;SDS011;13447;57.174;-2.112;2022-07-22T21:16:00;5.45;;;1.98;;
25555;SDS011;13447;57.174;-2.112;2022-07-22T21:18:27;4.03;;;2.10;;
25555;SDS011;13447;57.174;-2.112;2022-07-22T21:20:54;3.00;;;1.70;;
25555;SDS011;13447;57.174;-2.112;2022-07-22T21:23:21;4.32;;;1.88;;
25555;SDS011;13447;57.174;-2.112;2022-07-22T21:25:48;3.47;;;1.67;;
25555;SDS011;13447;57.174;-2.112;2022-07-22T21:28:15;2.50;;;1.73;;
25555;SDS011;13447;57.174;-2.112;2022-07-22T21:30:42;3.88;;;1.90;;
25555;SDS011;13447;57.174;-2.112;2022-07-22T21:33:09;2.53;;;1.33;;
25555;SDS011;13447;57.174;-2.112;2022-07-22T21:35:36;4.05;;;1.33;;
25555;SDS011;13447;57.174;-2.112;2022-07-22T21:38:03;4.60;;;1.58;;
25555;SDS011;13447;57.174;-2.112;2022-07-22T21:40:30;3.47;;;1.73;;
25555;SDS011;13447;57.174;-2.112;2022-07-22T21:42:57;5.28;;;1.50;;
25555;SDS011;13447;57.174;-2.112;2022-07-22T21:45:24;2.55;;;1.30;;
25555;SDS011;13447;57.174;-2.112;2022-07-22T21:47:51;1.90;;;1.50;;
25555;SDS011;13447;57.174;-2.112;2022-07-22T21:50:18;3.10;;;1.40;;
25555;SDS011;13447;57.174;-2.112;2022-07-22T21:52:45;4.47;;;2.53;;
25555;SDS011;13447;57.174;-2.112;2022-07-22T21:55:12;3.42;;;1.55;;
25555;SDS011;13447;57.174;-2.112;2022-07-22T21:57:39;6.78;;;1.67;;
25555;SDS011;13447;57.174;-2.112;2022-07-22T22:00:07;4.18;;;2.03;;
25555;SDS011;13447;57.174;-2.112;2022-07-22T22:02:38;5.68;;;1.80;;
25555;SDS011;13447;57.174;-2.112;2022-07-22T22:05:07;4.38;;;1.90;;
25555;SDS011;13447;57.174;-2.112;2022-07-22T22:07:34;2.95;;;1.30;;
25555;SDS011;13447;57.174;-2.112;2022-07-22T22:10:01;3.92;;;1.75;;
25555;SDS011;13447;57.174;-2.112;2022-07-22T22:12:29;4.47;;;1.55;;
25555;SDS011;13447;57.174;-2.112;2022-07-22T22:14:56;2.63;;;1.08;;
25555;SDS011;13447;57.174;-2.112;2022-07-22T22:17:23;4.45;;;1.98;;
25555;SDS011;13447;57.174;-2.112;2022-07-22T22:19:51;3.55;;;1.30;;
25555;SDS011;13447;57.174;-2.112;2022-07-22T22:22:18;2.50;;;1.35;;
25555;SDS011;13447;57.174;-2.112;2022-07-22T22:24:45;4.32;;;1.40;;
25555;SDS011;13447;57.174;-2.112;2022-07-22T22:27:12;5.45;;;1.70;;
25555;SDS011;13447;57.174;-2.112;2022-07-22T22:29:39;1.75;;;1.08;;
25555;SDS011;13447;57.174;-2.112;2022-07-22T22:32:06;4.35;;;1.55;;
25555;SDS011;13447;57.174;-2.112;2022-07-22T22:34:33;9.82;;;3.03;;
25555;SDS011;13447;57.174;-2.112;2022-07-22T22:37:01;2.95;;;1.10;;
25555;SDS011;13447;57.174;-2.112;2022-07-22T22:39:31;6.07;;;2.20;;
25555;SDS011;13447;57.174;-2.112;2022-07-22T22:41:58;4.03;;;1.83;;
25555;SDS011;13447;57.174;-2.112;2022-07-22T22:44:25;3.72;;;1.92;;
25555;SDS011;13447;57.174;-2.112;2022-07-22T22:46:52;4.10;;;1.50;;
25555;SDS011;13447;57.174;-2.112;2022-07-22T22:49:19;3.08;;;1.55;;
25555;SDS011;13447;57.174;-2.112;2022-07-22T22:51:47;4.43;;;1.80;;
25555;SDS011;13447;57.174;-2.112;2022-07-22T22:54:14;7.13;;;2.03;;
25555;SDS011;13447;57.174;-2.112;2022-07-22T22:56:41;11.15;;;2.80;;
25555;SDS011;13447;57.174;-2.112;2022-07-22T22:59:08;4.68;;;1.90;;
25555;SDS011;13447;57.174;-2.112;2022-07-22T23:01:36;4.40;;;1.70;;
25555;SDS011;13447;57.174;-2.112;2022-07-22T23:04:04;9.90;;;2.53;;
25555;SDS011;13447;57.174;-2.112;2022-07-22T23:06:31;2.28;;;1.20;;
25555;SDS011;13447;57.174;-2.112;2022-07-22T23:08:58;2.22;;;1.10;;
25555;SDS011;13447;57.174;-2.112;2022-07-22T23:11:26;6.20;;;1.70;;
25555;SDS011;13447;57.174;-2.112;2022-07-22T23:13:56;4.45;;;1.85;;
25555;SDS011;13447;57.174;-2.112;2022-07-22T23:16:23;3.55;;;1.63;;
25555;SDS011;13447;57.174;-2.112;2022-07-22T23:18:50;4.45;;;1.77;;
25555;SDS011;13447;57.174;-2.112;2022-07-22T23:21:17;3.53;;;1.60;;
25555;SDS011;13447;57.174;-2.112;2022-07-22T23:23:44;3.10;;;1.40;;
25555;SDS011;13447;57.174;-2.112;2022-07-22T23:26:11;4.32;;;1.77;;
25555;SDS011;13447;57.174;-2.112;2022-07-22T23:28:38;3.58;;;1.25;;
25555;SDS011;13447;57.174;-2.112;2022-07-22T23:31:05;4.50;;;1.27;;
25555;SDS011;13447;57.174;-2.112;2022-07-22T23:33:33;1.42;;;1.20;;
25555;SDS011;13447;57.174;-2.112;2022-07-22T23:36:00;4.07;;;1.30;;
25555;SDS011;13447;57.174;-2.112;2022-07-22T23:38:27;2.10;;;1.05;;
25555;SDS011;13447;57.174;-2.112;2022-07-22T23:40:54;3.67;;;1.10;;
25555;SDS011;13447;57.174;-2.112;2022-07-22T23:43:29;4.45;;;1.40;;
25555;SDS011;13447;57.174;-2.112;2022-07-22T23:45:57;2.00;;;1.00;;
25555;SDS011;13447;57.174;-2.112;2022-07-22T23:48:24;3.10;;;1.40;;
25555;SDS011;13447;57.174;-2.112;2022-07-22T23:50:51;2.95;;;1.67;;
25555;SDS011;13447;57.174;-2.112;2022-07-22T23:53:18;2.63;;;1.30;;
25555;SDS011;13447;57.174;-2.112;2022-07-22T23:55:45;2.65;;;1.58;;
25555;SDS011;13447;57.174;-2.112;2022-07-22T23:58:12;6.47;;;1.92;;
